Shipshaw, Canada
Current Conditions -  °F | °C
As of 11:00 AM on Tuesday 21 Oct 2014 (Local Time) from CYBG Reporting Station
Few Clouds Few Clouds  
Wind Chill: 36°   Ceiling: Unl
Heat Index: 41°   Visibility: 25mi
Dew Point: 28°   Wind: 7mph
Humidity: 61%   Direction: 250°WSW
Pressure: 30.16"   Gusts: NA
Location:  48.45°N, 71.22°W
Report Text: CYBG 211500Z 25006KT 25SM FEW030 FEW120 FEW220 05/M02 A3016 RMK CU1AS1CI1 SLP220
Loading
Personal Weather Stations






























Interactive Weather Map
Tropical Storm Tracking
New forecast layout! Learn more

10-Day Weather Forecast

Advertisements
Track Severe Weather on mobile